New Orleans, Louisiana
Traffic Map
Current Weather Conditions
New Orleans, Louisiana
Clear
Clear
20°
Feels Like: 20°
Wind Chill: 20° Ceiling: Unl
Heat Index: 20° Visibility: 10mi
Dew Point: Wind: 9mph
Humidity: 49% Direction: 300° (WNW)
Pressure: 29.9in Gusts: 0mph
Raw Report DataKVSH 241955Z AUTO 30008KT 10SM CLR 20/09 A2990 RMK AO1
Traffic Incident Summary
Active as of:
Severity:
Category:
InformationThere was an issue retrieving the traffic information for this location. Please try a different location or try again shortly.
Advertisements
Track Severe Weather on mobile